Time;durP1;ratioP1;P1;durP2;ratioP2;P2;SDS_P1;SDS_P2;PMS_P1;PMS_P2;Temp;Humidity;BMP_temperature;BMP_pressure;BME280_temperature;BME280_humidity;BME280_pressure;Samples;Min_cycle;Max_cycle;Signal;HPM_P1;HPM_P2
2023/08/31 00:01:52;;;;;;;2.57;2.37;;;14.60;99.90;;;;;;5022642;28;20508;-80
2023/08/31 00:04:24;;;;;;;3.53;2.67;;;14.50;99.90;;;;;;5018370;28;20503;-79
2023/08/31 00:07:04;;;;;;;3.33;2.37;;;14.60;99.90;;;;;;5022157;28;20482;-78
2023/08/31 00:09:43;;;;;;;2.53;2.33;;;14.50;99.90;;;;;;5021159;28;20462;-81
2023/08/31 00:12:31;;;;;;;2.47;2.20;;;14.50;99.90;;;;;;5022284;28;20486;-80
2023/08/31 00:15:08;;;;;;;2.37;2.10;;;14.50;99.90;;;;;;5024344;28;20450;-79
2023/08/31 00:17:37;;;;;;;7.13;2.50;;;14.50;99.90;;;;;;5020955;28;20455;-81
2023/08/31 00:20:15;;;;;;;4.60;2.90;;;14.50;99.90;;;;;;5026234;28;20474;-80
2023/08/31 00:22:48;;;;;;;2.50;2.30;;;14.50;99.90;;;;;;5024718;28;20510;-80
2023/08/31 00:25:17;;;;;;;3.63;2.70;;;14.50;99.90;;;;;;5026141;28;20476;-79
2023/08/31 00:27:48;;;;;;;3.13;2.83;;;14.40;99.90;;;;;;5025583;28;20471;-78
2023/08/31 00:30:20;;;;;;;5.10;2.57;;;14.50;99.90;;;;;;5026601;28;20544;-79
2023/08/31 00:32:48;;;;;;;3.63;2.63;;;14.40;99.90;;;;;;5024627;28;20448;-79
2023/08/31 00:35:17;;;;;;;2.70;2.50;;;14.40;99.90;;;;;;5017251;28;20472;-80
2023/08/31 00:37:49;;;;;;;3.13;2.93;;;14.40;99.90;;;;;;5017195;28;20478;-78
2023/08/31 00:40:33;;;;;;;3.67;3.33;;;14.30;99.90;;;;;;5019437;28;20452;-80
2023/08/31 00:43:05;;;;;;;4.20;3.23;;;14.40;99.90;;;;;;5018568;28;20487;-79
2023/08/31 00:45:41;;;;;;;4.40;3.03;;;14.50;99.90;;;;;;5020934;28;20483;-81
2023/08/31 00:48:11;;;;;;;3.20;2.90;;;14.30;99.90;;;;;;5019096;28;20475;-82
2023/08/31 00:50:40;;;;;;;3.00;2.80;;;14.20;99.90;;;;;;5020792;28;20452;-79
2023/08/31 00:53:21;;;;;;;3.00;2.80;;;14.20;99.90;;;;;;5024381;28;20523;-80
2023/08/31 00:55:54;;;;;;;4.13;3.03;;;14.20;99.90;;;;;;5024179;28;20443;-80
2023/08/31 00:58:22;;;;;;;4.20;3.20;;;14.10;99.90;;;;;;5022221;28;20479;-78
2023/08/31 01:00:59;;;;;;;4.33;3.33;;;14.00;99.90;;;;;;5018656;28;20542;-78
2023/08/31 01:03:39;;;;;;;4.00;3.23;;;13.90;99.90;;;;;;5021557;28;20490;-81
2023/08/31 01:06:19;;;;;;;4.07;3.47;;;13.90;99.90;;;;;;5021284;28;20444;-80
2023/08/31 01:09:00;;;;;;;5.23;3.83;;;13.90;99.90;;;;;;5020903;28;20494;-82
2023/08/31 01:11:37;;;;;;;4.63;3.63;;;13.90;99.90;;;;;;5021744;28;20522;-78
2023/08/31 01:14:18;;;;;;;3.90;3.43;;;13.90;99.90;;;;;;5019687;28;20463;-82
2023/08/31 01:16:55;;;;;;;4.13;3.37;;;13.90;99.90;;;;;;5020280;28;20503;-78
2023/08/31 01:19:39;;;;;;;3.30;3.00;;;13.80;99.90;;;;;;5017383;28;20451;-80
2023/08/31 01:22:12;;;;;;;3.80;3.50;;;13.80;99.90;;;;;;5017518;28;20542;-78
2023/08/31 01:24:45;;;;;;;3.30;3.03;;;13.70;99.90;;;;;;5018718;28;20489;-77
2023/08/31 01:27:15;;;;;;;3.60;3.03;;;13.70;99.90;;;;;;5020540;28;20471;-79
2023/08/31 01:29:47;;;;;;;4.00;3.10;;;13.60;99.90;;;;;;5018830;28;20455;-78
2023/08/31 01:32:23;;;;;;;3.00;2.70;;;13.60;99.90;;;;;;5022392;28;20443;-80
2023/08/31 01:35:11;;;;;;;3.67;3.37;;;13.60;99.90;;;;;;5021432;28;20471;-80
2023/08/31 01:37:55;;;;;;;4.83;3.30;;;13.60;99.90;;;;;;5021822;28;20459;-79
2023/08/31 01:40:32;;;;;;;3.90;3.10;;;13.50;99.90;;;;;;5020473;28;20447;-80
2023/08/31 01:43:05;;;;;;;3.60;3.30;;;13.50;99.90;;;;;;5021696;28;20474;-77
2023/08/31 01:45:49;;;;;;;3.40;3.17;;;13.40;99.90;;;;;;5021423;28;20478;-78
2023/08/31 01:48:21;;;;;;;3.40;3.10;;;13.40;99.90;;;;;;5019141;28;20978;-78
2023/08/31 01:51:02;;;;;;;5.23;3.33;;;13.40;99.90;;;;;;5021530;28;20626;-81
2023/08/31 01:53:48;;;;;;;3.50;3.30;;;13.40;99.90;;;;;;5020690;28;20480;-80
2023/08/31 01:59:03;;;;;;;3.50;3.30;;;13.40;99.90;;;;;;5018968;28;20449;-79
2023/08/31 02:01:36;;;;;;;3.87;2.90;;;13.40;99.90;;;;;;5004397;28;20455;-79
2023/08/31 02:04:06;;;;;;;3.70;3.40;;;13.40;99.90;;;;;;5021250;28;20436;-79
2023/08/31 02:06:40;;;;;;;4.13;3.27;;;13.00;99.90;;;;;;5021906;28;20473;-82
2023/08/31 02:09:08;;;;;;;4.03;3.10;;;13.40;99.90;;;;;;5021940;28;20526;-79
2023/08/31 02:11:39;;;;;;;7.40;3.13;;;13.40;99.90;;;;;;5021078;28;20545;-80
2023/08/31 02:14:09;;;;;;;3.20;2.73;;;13.50;99.90;;;;;;5020368;28;20483;-79
2023/08/31 02:16:42;;;;;;;3.20;2.93;;;13.40;99.90;;;;;;5021149;28;20529;-79
2023/08/31 02:19:11;;;;;;;3.40;3.20;;;13.50;99.90;;;;;;5020103;28;20452;-81
2023/08/31 02:21:42;;;;;;;4.63;3.00;;;13.50;99.90;;;;;;5020864;28;20455;-80
2023/08/31 02:24:10;;;;;;;3.33;3.03;;;13.50;99.90;;;;;;5020316;28;20440;-80
2023/08/31 02:26:52;;;;;;;4.97;2.80;;;13.20;99.90;;;;;;5018921;28;20507;-78
2023/08/31 02:29:31;;;;;;;3.40;3.10;;;13.50;99.90;;;;;;5020615;28;20482;-81
2023/08/31 02:32:00;;;;;;;3.67;3.07;;;13.50;99.90;;;;;;5020402;28;20546;-78
2023/08/31 02:34:32;;;;;;;3.17;2.97;;;13.50;99.90;;;;;;5018878;28;20571;-80
2023/08/31 02:37:01;;;;;;;4.10;2.73;;;13.50;99.90;;;;;;5021583;28;20476;-77
2023/08/31 02:39:29;;;;;;;3.00;2.80;;;13.50;99.90;;;;;;5022038;28;20543;-77
2023/08/31 02:42:05;;;;;;;2.93;2.73;;;13.60;99.90;;;;;;5021937;28;20447;-78
2023/08/31 02:44:33;;;;;;;3.27;2.90;;;13.60;99.90;;;;;;5020902;28;20443;-80
2023/08/31 02:47:08;;;;;;;3.30;3.10;;;13.60;99.90;;;;;;5018884;28;20594;-78
2023/08/31 02:49:42;;;;;;;2.80;2.40;;;13.60;99.90;;;;;;5019872;28;20537;-80
2023/08/31 02:52:12;;;;;;;2.90;2.70;;;13.60;99.90;;;;;;5020611;28;20535;-79
2023/08/31 02:54:50;;;;;;;3.20;3.00;;;13.60;99.90;;;;;;5019394;28;21225;-79
2023/08/31 02:57:23;;;;;;;2.70;2.50;;;13.60;99.90;;;;;;5021669;28;20491;-81
2023/08/31 03:00:21;;;;;;;2.53;2.33;;;13.60;99.90;;;;;;5016059;28;20455;-78
2023/08/31 03:02:53;;;;;;;3.50;2.57;;;13.60;99.90;;;;;;5011124;28;20448;-78
2023/08/31 03:05:32;;;;;;;3.20;3.00;;;13.60;99.90;;;;;;5022917;28;20452;-79
2023/08/31 03:08:20;;;;;;;3.47;3.17;;;13.60;99.90;;;;;;5019654;28;20458;-79
2023/08/31 03:10:55;;;;;;;3.17;2.67;;;13.60;99.90;;;;;;5021550;28;20452;-79
2023/08/31 03:13:42;;;;;;;2.80;2.60;;;13.60;99.90;;;;;;5021980;28;20501;-78
2023/08/31 03:16:20;;;;;;;8.07;2.90;;;13.60;99.90;;;;;;5024512;28;20538;-79
2023/08/31 03:18:48;;;;;;;3.63;2.53;;;13.60;99.90;;;;;;5018649;28;20545;-79
2023/08/31 03:21:16;;;;;;;2.97;2.77;;;13.60;99.90;;;;;;5018964;28;20455;-78
2023/08/31 03:23:53;;;;;;;3.30;3.10;;;13.50;99.90;;;;;;5017892;28;20534;-80
2023/08/31 03:26:24;;;;;;;4.20;3.80;;;13.40;99.90;;;;;;5017627;28;20482;-79
2023/08/31 03:28:58;;;;;;;4.43;3.50;;;13.40;99.90;;;;;;5016516;28;20477;-79
2023/08/31 03:31:27;;;;;;;3.50;3.20;;;13.40;99.90;;;;;;5021038;28;20479;-80
2023/08/31 03:33:58;;;;;;;3.27;3.00;;;13.30;99.90;;;;;;5017195;28;20456;-77
2023/08/31 03:36:29;;;;;;;6.20;2.93;;;13.40;99.90;;;;;;5019292;28;20493;-78
2023/08/31 03:38:57;;;;;;;5.87;3.53;;;13.30;99.90;;;;;;5019441;28;20451;-78
2023/08/31 03:41:28;;;;;;;3.20;3.00;;;13.30;99.90;;;;;;5020715;28;20484;-80
2023/08/31 03:43:58;;;;;;;4.27;2.90;;;13.30;99.90;;;;;;5019857;28;20451;-78
2023/08/31 03:46:40;;;;;;;3.30;2.87;;;13.30;99.90;;;;;;5022493;28;20483;-79
2023/08/31 03:49:14;;;;;;;3.80;3.23;;;13.20;99.90;;;;;;5023354;28;20992;-77
2023/08/31 03:51:43;;;;;;;4.67;3.10;;;13.20;99.90;;;;;;5020041;28;20427;-79
2023/08/31 03:54:14;;;;;;;2.80;2.60;;;13.20;99.90;;;;;;5019323;28;20451;-80
2023/08/31 03:56:43;;;;;;;3.70;3.40;;;13.20;99.90;;;;;;5017360;28;20486;-78
2023/08/31 03:59:19;;;;;;;4.33;3.40;;;13.20;99.90;;;;;;5021114;28;20475;-80
2023/08/31 04:01:47;;;;;;;3.33;3.13;;;13.20;99.90;;;;;;5021198;28;20510;-78
2023/08/31 04:04:16;;;;;;;4.93;3.67;;;13.20;99.90;;;;;;5021361;28;20514;-78
2023/08/31 04:06:46;;;;;;;3.90;3.17;;;13.20;99.90;;;;;;5017196;28;20531;-80
2023/08/31 04:09:15;;;;;;;3.80;3.20;;;13.20;99.90;;;;;;5017500;28;20451;-80
2023/08/31 04:11:49;;;;;;;3.87;3.40;;;13.20;99.90;;;;;;5015302;28;20452;-77
2023/08/31 04:14:24;;;;;;;4.13;3.13;;;13.20;99.90;;;;;;5016107;28;21054;-79
2023/08/31 04:16:56;;;;;;;4.10;3.70;;;13.20;99.90;;;;;;5016377;28;20486;-78
2023/08/31 04:19:26;;;;;;;3.40;3.20;;;13.10;99.90;;;;;;5018273;28;20523;-77
2023/08/31 04:22:00;;;;;;;5.20;3.50;;;13.10;99.90;;;;;;5019592;28;20947;-79
2023/08/31 04:24:31;;;;;;;4.73;3.50;;;13.10;99.90;;;;;;5017163;28;20545;-77
2023/08/31 04:27:16;;;;;;;3.47;3.17;;;13.10;99.90;;;;;;5015375;28;20495;-79
2023/08/31 04:29:52;;;;;;;3.70;3.40;;;13.10;99.90;;;;;;5015474;28;20473;-81
2023/08/31 04:32:23;;;;;;;3.27;3.07;;;13.10;99.90;;;;;;5016380;28;20506;-79
2023/08/31 04:35:06;;;;;;;3.97;3.70;;;13.10;99.90;;;;;;5021137;28;20981;-80
2023/08/31 04:37:42;;;;;;;4.00;3.60;;;13.00;99.90;;;;;;5019941;28;20486;-79
2023/08/31 04:40:19;;;;;;;3.70;3.40;;;13.10;99.90;;;;;;5019459;28;20935;-78
2023/08/31 04:42:53;;;;;;;5.53;3.50;;;13.00;99.90;;;;;;5006858;28;20456;-77
2023/08/31 04:45:30;;;;;;;4.20;3.57;;;13.00;99.90;;;;;;5026105;28;21101;-80
2023/08/31 04:48:01;;;;;;;3.47;3.27;;;13.00;99.90;;;;;;5025126;28;20603;-81
2023/08/31 04:50:30;;;;;;;4.10;3.70;;;13.00;99.90;;;;;;5027482;28;21009;-82
2023/08/31 04:52:58;;;;;;;4.30;4.00;;;13.00;99.90;;;;;;5018109;28;20954;-78
2023/08/31 04:55:29;;;;;;;3.80;3.50;;;13.00;99.90;;;;;;5025586;28;20474;-81
2023/08/31 04:57:58;;;;;;;3.70;3.40;;;13.00;99.90;;;;;;5023290;28;20479;-79
2023/08/31 05:00:31;;;;;;;4.30;3.30;;;13.00;99.90;;;;;;5016614;28;20475;-78
2023/08/31 05:03:02;;;;;;;4.13;3.40;;;13.00;99.90;;;;;;5016392;28;20833;-81
2023/08/31 05:05:32;;;;;;;5.47;4.00;;;13.00;99.90;;;;;;5017808;28;20443;-79
2023/08/31 05:08:04;;;;;;;5.47;3.40;;;13.00;99.90;;;;;;5020377;28;20483;-77
2023/08/31 05:10:37;;;;;;;4.87;3.67;;;13.00;99.90;;;;;;5022154;28;20973;-78
2023/08/31 05:13:09;;;;;;;4.20;3.53;;;13.00;99.90;;;;;;5021721;28;20513;-77
2023/08/31 05:15:46;;;;;;;6.53;3.93;;;13.00;99.90;;;;;;5022080;28;20681;-81
2023/08/31 05:18:16;;;;;;;5.80;4.87;;;13.00;99.90;;;;;;5020789;28;20475;-79
2023/08/31 05:20:50;;;;;;;4.37;3.80;;;13.00;99.90;;;;;;5024559;28;20474;-80
2023/08/31 05:23:22;;;;;;;4.40;4.10;;;13.00;99.90;;;;;;5027874;28;20523;-78
2023/08/31 05:25:58;;;;;;;4.20;3.80;;;13.10;99.90;;;;;;5032082;28;20959;-80
2023/08/31 05:28:38;;;;;;;4.40;4.00;;;13.10;99.90;;;;;;5034034;28;20447;-80
2023/08/31 05:31:08;;;;;;;4.43;4.03;;;13.10;99.90;;;;;;5034397;28;20450;-80
2023/08/31 05:33:38;;;;;;;4.03;3.73;;;13.10;99.90;;;;;;5017386;28;20722;-80
2023/08/31 05:36:07;;;;;;;4.13;3.83;;;13.20;99.90;;;;;;5020654;28;20475;-81
2023/08/31 05:38:35;;;;;;;4.93;3.00;;;13.20;99.90;;;;;;5018005;28;20463;-82
2023/08/31 05:41:09;;;;;;;4.23;3.83;;;13.30;99.90;;;;;;5018740;28;20455;-80
2023/08/31 05:43:42;;;;;;;4.30;3.90;;;13.30;99.90;;;;;;5016741;28;20412;-81
2023/08/31 05:46:23;;;;;;;4.80;4.40;;;12.90;99.90;;;;;;5020434;28;20510;-81
2023/08/31 05:49:02;;;;;;;4.27;3.73;;;13.30;99.90;;;;;;5020810;28;20455;-80
2023/08/31 05:51:36;;;;;;;3.87;3.57;;;13.30;99.90;;;;;;5029138;28;20470;-78
2023/08/31 05:54:13;;;;;;;4.37;3.97;;;13.30;99.90;;;;;;5030514;28;20479;-80
2023/08/31 05:56:42;;;;;;;4.63;3.63;;;13.30;99.90;;;;;;5026294;28;20491;-80
2023/08/31 05:59:19;;;;;;;5.10;3.77;;;13.30;99.90;;;;;;5022269;28;20983;-80
2023/08/31 06:01:52;;;;;;;4.20;3.90;;;13.30;99.90;;;;;;5024822;28;20474;-78
2023/08/31 06:04:21;;;;;;;3.80;3.50;;;13.30;99.90;;;;;;5022748;28;20434;-79
2023/08/31 06:06:57;;;;;;;6.17;4.17;;;13.30;99.90;;;;;;5019041;28;20471;-81
2023/08/31 06:09:29;;;;;;;3.77;3.47;;;13.30;99.90;;;;;;5022317;28;20431;-78
2023/08/31 06:11:59;;;;;;;4.80;3.93;;;13.30;99.90;;;;;;5023713;28;20496;-79
2023/08/31 06:14:27;;;;;;;4.17;3.80;;;13.30;99.90;;;;;;5025200;28;20447;-77
2023/08/31 06:17:01;;;;;;;3.77;3.47;;;13.40;99.90;;;;;;5024404;28;20479;-78
2023/08/31 06:19:33;;;;;;;6.50;4.30;;;13.40;99.90;;;;;;5025248;28;20467;-80
2023/08/31 06:22:05;;;;;;;3.37;3.17;;;13.50;99.90;;;;;;5021261;28;20458;-79
2023/08/31 06:24:51;;;;;;;4.10;3.70;;;13.50;99.90;;;;;;5021504;28;20455;-81
2023/08/31 06:27:28;;;;;;;6.23;3.40;;;13.60;99.90;;;;;;5022125;28;20467;-80
2023/08/31 06:30:11;;;;;;;4.20;3.83;;;13.70;99.90;;;;;;5021116;28;20447;-79
2023/08/31 06:32:48;;;;;;;4.20;3.87;;;13.70;99.90;;;;;;5023278;28;20475;-80
2023/08/31 06:35:21;;;;;;;6.13;4.30;;;13.80;99.90;;;;;;5025073;28;20423;-78
2023/08/31 06:37:57;;;;;;;3.27;3.00;;;13.80;99.90;;;;;;5025524;28;20460;-80
2023/08/31 06:40:27;;;;;;;5.27;4.10;;;13.90;99.90;;;;;;5022455;28;20431;-81
2023/08/31 06:43:05;;;;;;;5.23;3.60;;;14.10;99.90;;;;;;5025042;28;20523;-79
2023/08/31 06:45:42;;;;;;;5.37;3.60;;;14.20;99.90;;;;;;5026059;28;20474;-79
2023/08/31 06:48:21;;;;;;;5.40;3.93;;;14.30;99.90;;;;;;5023533;28;20895;-79
2023/08/31 06:50:56;;;;;;;3.83;3.50;;;14.40;99.90;;;;;;5031807;28;20458;-81
2023/08/31 06:53:39;;;;;;;4.20;3.77;;;14.50;99.90;;;;;;5027304;28;20440;-82
2023/08/31 06:56:14;;;;;;;4.20;3.87;;;14.70;99.90;;;;;;5008085;28;20927;-81
2023/08/31 06:58:50;;;;;;;6.70;3.50;;;14.70;99.90;;;;;;5006235;28;20525;-82
2023/08/31 07:01:19;;;;;;;4.83;3.33;;;14.90;99.90;;;;;;5006936;28;20535;-82
2023/08/31 07:03:51;;;;;;;4.00;3.63;;;15.10;99.90;;;;;;5009867;28;20491;-80
2023/08/31 07:06:24;;;;;;;4.77;3.43;;;15.10;99.90;;;;;;5008427;28;20445;-77
2023/08/31 07:08:53;;;;;;;5.77;3.00;;;15.10;99.90;;;;;;5008478;28;20464;-80
2023/08/31 07:11:22;;;;;;;6.10;3.17;;;15.10;99.90;;;;;;5004743;28;20491;-79
2023/08/31 07:13:52;;;;;;;4.73;2.87;;;15.10;99.90;;;;;;4995803;28;20472;-79
2023/08/31 07:16:21;;;;;;;2.70;2.50;;;15.20;99.90;;;;;;4994748;28;21490;-81
2023/08/31 07:18:59;;;;;;;5.60;2.93;;;15.20;99.90;;;;;;4996052;28;20448;-80
2023/08/31 07:21:27;;;;;;;5.30;3.40;;;15.30;99.90;;;;;;4994918;28;20551;-82
2023/08/31 07:24:01;;;;;;;3.20;2.90;;;15.40;99.90;;;;;;4996148;28;20543;-78
2023/08/31 07:26:35;;;;;;;4.63;3.50;;;15.50;99.90;;;;;;4996445;28;20488;-81
2023/08/31 07:29:11;;;;;;;3.30;3.00;;;15.60;99.90;;;;;;4996927;28;20474;-84
2023/08/31 07:31:40;;;;;;;3.97;2.77;;;15.60;99.90;;;;;;4994650;28;20433;-78
2023/08/31 07:34:17;;;;;;;2.90;2.70;;;15.70;99.90;;;;;;4994948;28;20503;-79
2023/08/31 07:37:08;;;;;;;4.90;2.80;;;15.90;99.90;;;;;;4996193;28;20488;-79
2023/08/31 07:40:08;;;;;;;3.00;2.70;;;16.00;99.90;;;;;;4995743;28;20807;-81
2023/08/31 07:42:56;;;;;;;2.80;2.60;;;16.10;99.90;;;;;;4993502;28;20523;-80
2023/08/31 07:45:40;;;;;;;3.70;2.80;;;16.30;99.90;;;;;;4994362;28;20463;-81
2023/08/31 07:48:14;;;;;;;4.93;2.73;;;16.50;99.90;;;;;;4994776;28;20480;-82
2023/08/31 07:50:50;;;;;;;2.90;2.70;;;16.50;99.90;;;;;;4995353;28;20448;-80
2023/08/31 07:59:28;;;;;;;3.03;2.40;;;17.10;99.90;;;;;;4993990;28;20964;-78
2023/08/31 08:01:56;;;;;;;3.83;3.00;;;17.30;99.90;;;;;;4997980;28;20444;-77
2023/08/31 08:04:25;;;;;;;3.73;2.40;;;17.30;99.90;;;;;;4994499;28;20456;-81
2023/08/31 08:07:02;;;;;;;2.60;2.30;;;17.50;99.90;;;;;;5003878;28;20491;-80
2023/08/31 08:09:32;;;;;;;2.40;2.20;;;17.70;99.90;;;;;;5001895;28;20456;-81
2023/08/31 08:12:14;;;;;;;;;;;;;;;;;;;;;
2023/08/31 08:14:49;;;;;;;4.13;2.50;;;17.70;99.90;;;;;;4995987;28;20947;-78
2023/08/31 08:17:29;;;;;;;8.13;2.50;;;17.90;99.90;;;;;;4995621;28;20496;-80
2023/08/31 08:20:01;;;;;;;3.97;2.63;;;18.20;99.90;;;;;;4995084;28;20458;-78
2023/08/31 08:22:45;;;;;;;3.20;2.30;;;18.20;99.90;;;;;;4995086;28;20456;-78
2023/08/31 08:25:18;;;;;;;2.40;2.20;;;18.20;99.90;;;;;;4997895;28;20519;-78
2023/08/31 08:27:45;;;;;;;5.33;2.43;;;17.90;99.90;;;;;;4996838;28;20540;-79
2023/08/31 08:30:19;;;;;;;4.30;2.93;;;17.90;99.90;;;;;;4995626;28;20506;-80
2023/08/31 08:32:54;;;;;;;2.47;2.17;;;18.00;99.90;;;;;;4997408;28;20457;-79
2023/08/31 08:35:31;;;;;;;3.90;2.30;;;17.80;99.90;;;;;;5008465;28;20449;-80
2023/08/31 08:38:04;;;;;;;2.90;2.20;;;17.80;99.90;;;;;;5008667;28;20547;-79
2023/08/31 08:40:33;;;;;;;4.30;2.23;;;17.80;99.90;;;;;;5010452;28;20467;-80
2023/08/31 08:43:12;;;;;;;4.20;2.63;;;17.70;99.90;;;;;;5011962;28;20456;-80
2023/08/31 08:45:42;;;;;;;2.80;2.40;;;17.80;99.90;;;;;;5014206;28;20466;-80
2023/08/31 08:48:16;;;;;;;2.87;2.60;;;18.00;99.90;;;;;;5012650;28;20480;-77
2023/08/31 08:50:56;;;;;;;3.57;1.97;;;18.30;99.90;;;;;;5010686;28;20443;-81
2023/08/31 08:53:27;;;;;;;3.73;2.50;;;18.50;99.90;;;;;;5008325;28;20447;-80
2023/08/31 08:55:56;;;;;;;6.00;2.20;;;18.60;99.90;;;;;;5002434;28;20484;-79
2023/08/31 08:58:24;;;;;;;3.17;2.30;;;18.00;99.90;;;;;;4999571;28;20480;-78
2023/08/31 09:01:08;;;;;;;2.80;1.97;;;17.90;99.90;;;;;;4999130;28;20530;-81
2023/08/31 09:03:48;;;;;;;2.97;2.20;;;17.90;99.90;;;;;;5003351;28;21002;-80
2023/08/31 09:06:22;;;;;;;2.30;2.10;;;18.40;99.90;;;;;;5005799;28;20531;-82
2023/08/31 09:08:57;;;;;;;6.13;2.10;;;19.00;99.90;;;;;;5009102;28;20543;-78
2023/08/31 09:11:34;;;;;;;4.13;2.00;;;19.30;99.90;;;;;;5003291;28;20451;-79
2023/08/31 09:14:18;;;;;;;3.20;2.20;;;19.10;99.90;;;;;;5007631;28;20455;-79
2023/08/31 09:16:53;;;;;;;7.47;2.27;;;19.30;99.90;;;;;;5009807;28;20570;-80
2023/08/31 09:19:28;;;;;;;4.10;2.70;;;19.20;99.90;;;;;;5006484;28;20498;-80
2023/08/31 09:22:06;;;;;;;7.27;2.80;;;19.00;99.90;;;;;;5007462;28;20451;-80
2023/08/31 09:24:55;;;;;;;3.87;2.47;;;18.60;99.90;;;;;;5007817;28;20476;-79
2023/08/31 09:27:34;;;;;;;5.07;2.90;;;18.60;99.90;;;;;;5004936;28;20472;-78
2023/08/31 09:30:13;;;;;;;4.10;2.40;;;19.20;99.90;;;;;;5006997;28;20520;-81
2023/08/31 09:32:44;;;;;;;2.20;1.80;;;19.40;99.90;;;;;;5010288;28;20466;-77
2023/08/31 09:35:25;;;;;;;2.27;2.07;;;19.10;99.90;;;;;;5011064;28;20463;-81
2023/08/31 09:37:58;;;;;;;3.60;2.13;;;19.40;99.90;;;;;;5009535;28;20476;-78
2023/08/31 09:40:37;;;;;;;2.50;2.10;;;19.10;99.90;;;;;;5013849;28;20487;-79
2023/08/31 09:43:09;;;;;;;4.60;2.40;;;19.40;99.90;;;;;;5013504;28;20704;-78
2023/08/31 09:45:48;;;;;;;5.70;2.20;;;19.40;99.90;;;;;;5012872;28;20476;-79
2023/08/31 09:48:27;;;;;;;2.23;1.77;;;19.60;99.90;;;;;;5011310;28;20479;-77
2023/08/31 09:51:10;;;;;;;3.70;2.57;;;19.80;99.90;;;;;;5013161;28;20519;-81
2023/08/31 09:53:48;;;;;;;3.47;2.60;;;19.80;99.90;;;;;;5009018;28;20456;-78
2023/08/31 09:56:35;;;;;;;2.90;2.40;;;20.00;99.90;;;;;;5010040;28;20455;-81
2023/08/31 09:59:10;;;;;;;4.20;1.97;;;19.80;99.90;;;;;;5013633;28;20455;-78
2023/08/31 10:01:40;;;;;;;5.67;2.40;;;20.00;99.90;;;;;;5009010;28;20491;-79
2023/08/31 10:04:12;;;;;;;2.70;2.40;;;20.00;99.90;;;;;;5008011;28;20555;-79
2023/08/31 10:06:43;;;;;;;4.70;2.57;;;19.90;99.90;;;;;;5008831;28;20469;-79
2023/08/31 10:09:15;;;;;;;2.73;1.87;;;20.20;99.90;;;;;;5013859;28;20495;-82
2023/08/31 10:11:50;;;;;;;4.70;2.20;;;20.70;99.90;;;;;;5013839;28;20450;-80
2023/08/31 10:14:34;;;;;;;3.50;2.27;;;20.80;99.90;;;;;;5011539;28;20463;-79
2023/08/31 10:17:02;;;;;;;4.30;3.63;;;21.10;99.90;;;;;;5006389;28;20488;-80
2023/08/31 10:19:33;;;;;;;2.37;2.17;;;21.10;99.90;;;;;;5006990;28;20996;-80
2023/08/31 10:22:08;;;;;;;4.00;2.27;;;21.00;99.90;;;;;;5001245;28;20462;-79
2023/08/31 10:25:01;;;;;;;2.43;2.20;;;20.90;99.90;;;;;;5000075;28;20542;-80
2023/08/31 10:27:38;;;;;;;4.40;2.60;;;20.70;99.90;;;;;;5000892;28;20511;-80
2023/08/31 10:30:29;;;;;;;3.80;2.03;;;20.20;99.90;;;;;;5001868;28;20955;-80
2023/08/31 10:33:32;;;;;;;2.30;2.10;;;19.90;99.90;;;;;;4996137;28;20452;-80
2023/08/31 10:35:59;;;;;;;3.47;2.03;;;19.80;99.90;;;;;;4944512;29;20439;-79
2023/08/31 10:38:31;;;;;;;4.60;2.27;;;19.80;99.90;;;;;;4944119;29;21166;-81
2023/08/31 10:41:23;;;;;;;4.30;2.23;;;20.30;99.90;;;;;;4975672;28;20445;-81
2023/08/31 10:43:58;;;;;;;2.90;2.23;;;20.80;99.90;;;;;;5004198;28;20488;-81
2023/08/31 10:46:35;;;;;;;3.30;2.43;;;21.00;99.90;;;;;;5008680;28;20499;-81
2023/08/31 10:49:29;;;;;;;2.40;2.20;;;20.70;99.90;;;;;;5009605;28;20452;-81
2023/08/31 10:51:58;;;;;;;5.23;2.13;;;20.70;99.90;;;;;;5006483;28;20522;-79
2023/08/31 10:54:31;;;;;;;4.40;2.27;;;20.60;99.90;;;;;;4999599;28;20449;-79
2023/08/31 10:57:13;;;;;;;3.80;2.20;;;20.20;99.90;;;;;;5001985;28;20534;-80
2023/08/31 10:59:50;;;;;;;2.93;2.70;;;20.10;99.90;;;;;;5001098;28;20943;-80
2023/08/31 11:02:40;;;;;;;4.37;2.30;;;19.70;99.90;;;;;;5000048;28;20843;-78
2023/08/31 11:05:10;;;;;;;3.33;2.50;;;19.60;99.90;;;;;;5004073;28;20453;-81
2023/08/31 11:07:58;;;;;;;5.27;3.07;;;20.00;99.90;;;;;;5008376;28;20477;-78
2023/08/31 11:10:30;;;;;;;3.40;2.73;;;20.00;99.90;;;;;;5012390;28;20429;-81
2023/08/31 11:13:05;;;;;;;8.40;2.63;;;19.90;99.90;;;;;;5012381;28;20417;-78
2023/08/31 11:15:38;;;;;;;3.83;2.30;;;19.80;99.90;;;;;;5010946;28;20456;-78
2023/08/31 11:18:27;;;;;;;5.10;2.20;;;19.80;99.90;;;;;;5011338;28;20507;-83
2023/08/31 11:21:07;;;;;;;7.90;2.50;;;19.90;99.90;;;;;;4996441;28;20457;-80
2023/08/31 11:23:44;;;;;;;3.23;2.63;;;19.70;99.90;;;;;;5010427;28;20447;-81
2023/08/31 11:26:31;;;;;;;4.40;2.33;;;19.40;99.90;;;;;;5018264;28;20456;-79
2023/08/31 11:29:08;;;;;;;2.73;2.20;;;19.40;99.90;;;;;;5017456;28;20475;-81
2023/08/31 11:31:44;;;;;;;5.50;2.67;;;20.00;99.90;;;;;;5021679;28;20440;-80
2023/08/31 11:34:21;;;;;;;2.80;2.43;;;20.50;99.90;;;;;;5021139;28;20517;-79
2023/08/31 11:36:58;;;;;;;4.20;2.60;;;20.70;99.90;;;;;;5020488;28;20465;-82
2023/08/31 11:39:48;;;;;;;6.00;2.70;;;20.50;99.90;;;;;;5016077;28;20439;-81
2023/08/31 11:42:21;;;;;;;4.53;2.93;;;20.80;99.90;;;;;;5016011;28;20444;-80
2023/08/31 11:45:05;;;;;;;3.70;3.00;;;20.70;99.90;;;;;;5016526;28;20467;-80
2023/08/31 11:47:35;;;;;;;3.60;2.70;;;20.70;99.90;;;;;;5017437;28;20467;-80
2023/08/31 11:50:04;;;;;;;4.53;2.77;;;20.20;99.90;;;;;;5014155;28;20571;-79
2023/08/31 11:55:54;;;;;;;4.90;2.60;;;20.40;99.90;;;;;;5016198;28;20467;-79
2023/08/31 11:58:34;;;;;;;3.73;2.47;;;20.70;99.90;;;;;;5015987;28;20574;-79
2023/08/31 12:04:31;;;;;;;5.40;2.47;;;20.70;99.90;;;;;;5023204;28;20451;-80
2023/08/31 12:07:12;;;;;;;4.63;2.47;;;20.90;99.90;;;;;;5020993;28;20490;-81
2023/08/31 12:09:46;;;;;;;5.33;2.73;;;20.70;99.90;;;;;;5021304;28;20469;-81
2023/08/31 12:12:21;;;;;;;5.07;3.43;;;20.50;99.90;;;;;;5024313;28;20443;-80
2023/08/31 12:15:00;;;;;;;3.23;2.60;;;20.50;99.90;;;;;;5025883;28;20447;-81
2023/08/31 12:17:43;;;;;;;2.70;2.47;;;20.60;99.90;;;;;;5026177;28;20501;-80
2023/08/31 12:21:08;;;;;;;3.37;2.77;;;21.00;99.90;;;;;;5025135;28;20455;-80
2023/08/31 12:23:47;;;;;;;3.10;2.77;;;21.10;99.90;;;;;;5025505;28;20439;-79
2023/08/31 12:26:46;;;;;;;2.90;2.43;;;21.20;99.90;;;;;;5021811;28;20501;-80
2023/08/31 12:29:22;;;;;;;2.87;2.50;;;21.10;99.90;;;;;;5019761;28;20448;-78
2023/08/31 12:32:01;;;;;;;4.63;2.27;;;21.30;99.90;;;;;;5018167;28;20473;-79
2023/08/31 12:34:38;;;;;;;5.17;2.60;;;21.30;99.90;;;;;;5015606;28;20462;-79
2023/08/31 12:37:10;;;;;;;4.17;2.40;;;21.80;99.90;;;;;;5016663;28;20501;-79
2023/08/31 12:39:45;;;;;;;4.50;2.37;;;22.00;99.90;;;;;;5018933;28;20446;-80
2023/08/31 12:42:13;;;;;;;2.87;2.20;;;22.70;99.90;;;;;;5021120;28;20447;-78
2023/08/31 12:44:42;;;;;;;3.63;2.60;;;23.30;99.90;;;;;;5020019;28;20435;-79
2023/08/31 12:47:17;;;;;;;2.13;2.00;;;23.40;99.90;;;;;;5021016;28;20460;-81
2023/08/31 12:52:45;;;;;;;3.37;2.43;;;22.60;99.90;;;;;;5015497;28;20440;-79
2023/08/31 12:55:29;;;;;;;4.13;2.43;;;22.50;99.90;;;;;;5017464;28;20455;-80
2023/08/31 12:57:59;;;;;;;6.17;2.40;;;22.20;99.90;;;;;;5024242;28;20498;-80
2023/08/31 13:00:56;;;;;;;4.63;2.57;;;21.70;99.90;;;;;;5017075;28;20989;-81
2023/08/31 13:03:27;;;;;;;3.00;2.10;;;21.60;99.90;;;;;;5014470;28;20483;-80
2023/08/31 13:05:59;;;;;;;4.90;2.17;;;21.20;99.90;;;;;;5013222;28;20459;-79
2023/08/31 13:08:53;;;;;;;4.07;2.23;;;21.10;99.90;;;;;;5014543;28;20435;-78
2023/08/31 13:11:24;;;;;;;2.90;2.50;;;21.00;99.90;;;;;;5028309;28;20448;-81
2023/08/31 13:13:55;;;;;;;4.50;2.57;;;21.10;99.90;;;;;;5020294;28;20447;-82
2023/08/31 13:16:28;;;;;;;2.80;2.30;;;20.90;99.90;;;;;;5013663;28;20478;-80
2023/08/31 13:19:00;;;;;;;3.53;1.90;;;20.70;99.90;;;;;;5018039;28;20506;-82
2023/08/31 13:21:29;;;;;;;2.70;2.23;;;20.90;99.90;;;;;;5019211;28;20474;-80
2023/08/31 13:24:00;;;;;;;11.13;2.50;;;21.00;99.90;;;;;;5018918;28;20863;-79
2023/08/31 13:26:47;;;;;;;4.03;2.50;;;21.20;99.90;;;;;;5018822;28;20658;-81
2023/08/31 13:29:32;;;;;;;2.57;2.13;;;21.20;99.90;;;;;;5023181;28;20505;-79
2023/08/31 13:32:11;;;;;;;2.70;2.40;;;21.70;99.90;;;;;;5022060;28;20453;-79
2023/08/31 13:34:54;;;;;;;3.17;2.07;;;22.30;99.90;;;;;;5021247;28;20481;-79
2023/08/31 13:40:39;;;;;;;3.33;2.77;;;23.10;99.90;;;;;;5001924;28;20483;-82
2023/08/31 13:43:26;;;;;;;7.50;2.40;;;22.90;99.90;;;;;;5020963;28;20467;-80
2023/08/31 13:46:00;;;;;;;6.90;2.10;;;22.80;99.90;;;;;;5019231;28;20434;-79
2023/08/31 13:48:29;;;;;;;3.23;2.10;;;22.60;99.90;;;;;;5017976;28;20465;-82
2023/08/31 13:51:06;;;;;;;3.60;2.30;;;22.20;99.90;;;;;;5017543;28;20490;-83
2023/08/31 13:53:39;;;;;;;4.10;2.40;;;22.30;99.90;;;;;;5018995;28;20469;-79